Time;durP1;ratioP1;P1;durP2;ratioP2;P2;SDS_P1;SDS_P2;PMS_P1;PMS_P2;Temp;Humidity;BMP_temperature;BMP_pressure;BME280_temperature;BME280_humidity;BME280_pressure;Samples;Min_cycle;Max_cycle;Signal;HPM_P1;HPM_P2
2022/08/21 00:02:37;;;;;;;4.40;3.70;;;;;;;20.20;73.24;100594.66;1732913;80;21060;-78
2022/08/21 00:05:24;;;;;;;4.42;4.03;;;;;;;20.19;73.28;100586.41;1744318;80;21073;-78
2022/08/21 00:08:09;;;;;;;3.85;3.55;;;;;;;20.20;73.29;100585.47;1739643;80;21674;-78
2022/08/21 00:10:54;;;;;;;3.87;3.58;;;;;;;20.21;73.30;100577.13;1729557;80;21093;-78
2022/08/21 00:13:40;;;;;;;6.53;3.92;;;;;;;20.19;73.24;100577.69;1735450;82;21060;-78
2022/08/21 00:16:25;;;;;;;4.08;3.70;;;;;;;20.17;73.28;100576.45;1740396;80;21077;-78
2022/08/21 00:19:10;;;;;;;4.47;4.03;;;;;;;20.13;73.28;100574.47;1731875;80;21052;-78
2022/08/21 00:21:55;;;;;;;7.95;3.98;;;;;;;20.13;73.31;100574.47;1714927;80;21037;-78
2022/08/21 00:24:40;;;;;;;4.22;3.55;;;;;;;20.12;73.30;100575.41;1754019;80;21112;-78
2022/08/21 00:27:25;;;;;;;4.08;3.77;;;;;;;20.13;73.35;100578.88;1739717;80;21096;-78
2022/08/21 00:30:14;;;;;;;5.55;3.87;;;;;;;20.11;73.33;100584.20;1731553;80;21103;-78
2022/08/21 00:33:00;;;;;;;4.15;3.77;;;;;;;20.08;73.39;100588.78;1758368;80;20938;-78
2022/08/21 00:35:45;;;;;;;4.83;4.40;;;;;;;20.06;73.40;100582.30;1720188;79;20933;-78
2022/08/21 00:38:30;;;;;;;5.15;4.28;;;;;;;20.07;73.46;100583.15;1746563;80;20945;-78
2022/08/21 00:41:14;;;;;;;7.70;4.70;;;;;;;20.06;73.45;100576.20;1742842;80;20969;-78
2022/08/21 00:43:59;;;;;;;5.53;4.60;;;;;;;20.09;73.49;100579.97;1740529;80;21352;-78
2022/08/21 00:46:44;;;;;;;4.92;4.53;;;;;;;20.08;73.45;100579.13;1736157;81;21012;-78
2022/08/21 00:49:29;;;;;;;5.17;4.78;;;;;;;20.08;73.49;100576.97;1746992;80;21025;-78
2022/08/21 00:52:19;;;;;;;5.22;4.72;;;;;;;20.08;73.54;100576.50;1719665;80;21520;-78
2022/08/21 00:55:09;;;;;;;5.33;4.90;;;;;;;20.08;73.55;100574.34;1728428;80;21073;-77
2022/08/21 00:57:57;;;;;;;5.70;5.17;;;;;;;20.09;73.54;100576.04;1728210;82;21097;-78
2022/08/21 01:00:47;;;;;;;6.58;5.03;;;;;;;20.10;73.62;100578.58;1720628;81;21584;-78
2022/08/21 01:03:35;;;;;;;5.53;5.03;;;;;;;20.10;73.63;100575.11;1694885;81;21148;-77
2022/08/21 01:06:20;;;;;;;10.65;5.62;;;;;;;20.08;73.66;100569.09;1720996;81;21060;-77
2022/08/21 01:09:05;;;;;;;7.47;5.67;;;;;;;20.09;73.70;100566.85;1715494;81;22388;-77
2022/08/21 01:11:51;;;;;;;6.47;5.87;;;;;;;20.11;73.69;100568.45;1722216;81;21070;-77
2022/08/21 01:14:36;;;;;;;7.55;5.80;;;;;;;20.11;73.72;100571.55;1724214;81;21062;-77
2022/08/21 01:17:22;;;;;;;8.08;6.25;;;;;;;20.10;73.76;100564.61;1701754;81;21025;-79
2022/08/21 01:20:10;;;;;;;6.60;6.05;;;;;;;20.08;73.74;100559.44;1694430;82;21120;-78
2022/08/21 01:22:55;;;;;;;6.80;6.20;;;;;;;20.07;73.78;100559.06;1669322;84;21561;-78
2022/08/21 01:25:40;;;;;;;7.62;6.92;;;;;;;20.07;73.82;100560.38;1669491;83;21093;-78
2022/08/21 01:28:30;;;;;;;8.08;6.67;;;;;;;20.06;73.87;100556.52;1665114;83;22197;-78
2022/08/21 01:31:17;;;;;;;7.42;6.70;;;;;;;20.06;73.87;100559.99;1661083;84;21530;-78
2022/08/21 01:34:03;;;;;;;7.65;6.83;;;;;;;20.05;73.88;100554.36;1672178;84;20997;-77
2022/08/21 01:36:48;;;;;;;7.78;6.40;;;;;;;20.04;73.96;100558.38;1659068;85;21529;-77
2022/08/21 01:39:35;;;;;;;6.90;6.30;;;;;;;20.06;73.96;100559.14;1656082;85;21634;-77
2022/08/21 01:42:20;;;;;;;7.80;7.15;;;;;;;20.07;73.96;100559.52;1677622;83;21052;-78
2022/08/21 01:45:07;;;;;;;7.87;7.08;;;;;;;20.06;73.96;100557.37;1670373;82;20977;-78
2022/08/21 01:47:52;;;;;;;10.00;7.00;;;;;;;20.06;74.02;100554.73;1664345;83;21839;-78
2022/08/21 01:50:37;;;;;;;7.00;6.45;;;;;;;20.06;74.02;100549.95;1667184;85;20978;-78
2022/08/21 01:53:22;;;;;;;7.30;6.78;;;;;;;20.08;74.04;100556.81;1676992;82;21056;-78
2022/08/21 01:56:11;;;;;;;7.97;7.17;;;;;;;20.07;74.06;100549.88;1690805;82;21064;-78
2022/08/21 01:58:56;;;;;;;8.45;7.65;;;;;;;20.07;74.09;100553.81;1712461;80;21113;-77
2022/08/21 02:01:41;;;;;;;8.95;7.85;;;;;;;20.07;74.13;100551.19;1708844;81;21514;-78
2022/08/21 02:04:26;;;;;;;7.90;7.20;;;;;;;20.07;74.14;100547.71;1723345;81;21108;-78
2022/08/21 02:07:11;;;;;;;8.25;7.55;;;;;;;20.08;74.16;100550.25;1721853;81;21619;-78
2022/08/21 02:09:56;;;;;;;8.70;8.00;;;;;;;20.08;74.21;100550.72;1716692;81;21096;-77
2022/08/21 02:12:41;;;;;;;8.85;7.97;;;;;;;20.05;74.20;100550.42;1718003;81;21065;-77
2022/08/21 02:15:29;;;;;;;9.65;7.62;;;;;;;20.05;74.27;100560.92;1715571;80;21046;-78
2022/08/21 02:18:14;;;;;;;7.92;7.25;;;;;;;20.08;74.31;100553.34;1701122;81;21862;-78
2022/08/21 02:20:59;;;;;;;7.55;6.97;;;;;;;20.09;74.31;100553.72;1725613;81;21144;-78
2022/08/21 02:23:45;;;;;;;7.22;6.67;;;;;;;20.09;74.27;100545.84;1703522;82;21537;-77
2022/08/21 02:26:30;;;;;;;7.87;7.15;;;;;;;20.10;74.29;100550.16;1715546;81;21111;-77
2022/08/21 02:29:15;;;;;;;7.53;6.90;;;;;;;20.06;74.30;100546.02;1714686;81;21112;-77
2022/08/21 02:32:00;;;;;;;7.12;6.50;;;;;;;19.99;74.35;100541.58;1725271;80;22276;-78
2022/08/21 02:34:45;;;;;;;7.50;6.87;;;;;;;19.96;74.38;100532.56;1782286;78;21061;-77
2022/08/21 02:37:30;;;;;;;7.28;6.62;;;;;;;19.94;74.40;100536.20;1788300;78;21489;-78
2022/08/21 02:40:19;;;;;;;7.12;6.33;;;;;;;19.89;74.43;100535.61;1779364;79;21069;-78
2022/08/21 02:43:06;;;;;;;6.35;5.75;;;;;;;19.86;74.46;100527.45;1780722;78;21442;-78
2022/08/21 02:45:52;;;;;;;6.03;5.58;;;;;;;19.82;74.46;100524.15;1795429;78;21065;-78
2022/08/21 02:48:38;;;;;;;5.83;5.33;;;;;;;19.77;74.44;100517.46;1702278;81;21110;-78
2022/08/21 02:51:23;;;;;;;6.25;5.50;;;;;;;19.73;74.55;100526.47;1719481;81;21117;-78
2022/08/21 02:54:08;;;;;;;8.58;5.92;;;;;;;19.69;74.57;100518.38;1754328;80;21037;-77
2022/08/21 02:56:54;;;;;;;6.08;5.58;;;;;;;19.68;74.59;100524.56;1710602;80;21326;-77
2022/08/21 02:59:40;;;;;;;6.05;5.55;;;;;;;19.64;74.60;100525.19;1776800;78;21116;-77
2022/08/21 03:02:26;;;;;;;5.65;5.15;;;;;;;19.55;74.61;100528.31;1775320;78;21108;-77
2022/08/21 03:05:11;;;;;;;5.33;4.93;;;;;;;19.48;74.67;100530.86;1779033;78;21184;-77
2022/08/21 03:07:57;;;;;;;5.67;4.67;;;;;;;19.44;74.81;100530.17;1782811;78;21099;-77
2022/08/21 03:10:47;;;;;;;4.78;4.47;;;;;;;19.41;74.84;100526.88;1787357;78;21022;-77
2022/08/21 03:13:32;;;;;;;5.22;4.53;;;;;;;19.35;74.83;100530.67;1716927;81;21038;-77
2022/08/21 03:16:19;;;;;;;5.43;4.93;;;;;;;19.35;74.86;100527.20;1729914;81;21082;-77
2022/08/21 03:19:04;;;;;;;4.55;4.25;;;;;;;19.31;74.89;100535.69;1775288;78;21092;-77
2022/08/21 03:21:49;;;;;;;5.03;4.70;;;;;;;19.30;74.93;100527.91;1779555;78;21029;-78
2022/08/21 03:24:34;;;;;;;4.58;4.17;;;;;;;19.27;74.92;100532.84;1783021;78;21069;-78
2022/08/21 03:27:20;;;;;;;5.08;4.58;;;;;;;19.27;74.96;100536.78;1790573;78;21710;-78
2022/08/21 03:30:08;;;;;;;5.05;4.65;;;;;;;19.27;75.02;100530.69;1751786;78;21716;-78
2022/08/21 03:32:52;;;;;;;4.42;4.12;;;;;;;19.27;75.04;100531.54;1636087;85;21079;-77
2022/08/21 03:35:37;;;;;;;4.67;4.25;;;;;;;19.28;75.04;100533.23;1636356;86;21058;-77
2022/08/21 03:38:22;;;;;;;5.08;4.55;;;;;;;19.29;75.12;100538.02;1641514;85;21514;-77
2022/08/21 03:41:08;;;;;;;4.70;4.33;;;;;;;19.33;75.11;100532.98;1636275;85;21053;-77
2022/08/21 03:43:53;;;;;;;4.28;3.50;;;;;;;19.34;75.17;100543.39;1630583;85;21086;-77
2022/08/21 03:46:39;;;;;;;4.28;3.67;;;;;;;19.33;75.13;100546.09;1637338;85;21114;-78
2022/08/21 03:49:25;;;;;;;3.72;3.47;;;;;;;19.32;75.17;100547.88;1641962;85;21066;-78
2022/08/21 03:52:10;;;;;;;3.95;3.65;;;;;;;19.31;75.22;100560.60;1635421;85;21086;-78
2022/08/21 03:54:55;;;;;;;4.33;3.67;;;;;;;19.33;75.19;100558.74;1645895;85;21633;-77
2022/08/21 03:57:41;;;;;;;4.10;3.80;;;;;;;19.33;75.23;100564.45;1637200;85;21090;-77
2022/08/21 04:00:26;;;;;;;3.33;3.13;;;;;;;19.33;75.28;100565.77;1652468;85;21489;-77
2022/08/21 04:03:12;;;;;;;3.37;3.17;;;;;;;19.33;75.26;100564.45;1639032;85;21010;-77
2022/08/21 04:05:57;;;;;;;3.08;2.87;;;;;;;19.31;75.32;100578.95;1629919;85;21035;-77
2022/08/21 04:08:42;;;;;;;3.37;3.17;;;;;;;19.28;75.33;100571.25;1649941;85;21099;-78
2022/08/21 04:11:27;;;;;;;2.95;2.75;;;;;;;19.27;75.39;100572.64;1643023;85;21110;-78
2022/08/21 04:14:14;;;;;;;3.77;3.05;;;;;;;19.24;75.45;100571.49;1659353;85;20994;-78
2022/08/21 04:16:59;;;;;;;;;;;;;;;19.24;75.46;100572.34;1645424;85;21505;-78
2022/08/21 04:19:44;;;;;;;4.65;3.10;;;;;;;19.25;75.80;100578.43;1635603;85;20182;-78
2022/08/21 04:22:30;;;;;;;3.37;3.17;;;;;;;19.23;75.46;100582.94;1647024;85;21098;-78
2022/08/21 04:25:16;;;;;;;3.12;2.92;;;;;;;19.17;75.44;100581.02;1645421;85;21022;-78
2022/08/21 04:28:01;;;;;;;2.83;2.62;;;;;;;19.13;75.53;100579.48;1637266;85;21589;-78
2022/08/21 04:30:47;;;;;;;3.05;2.85;;;;;;;19.10;75.62;100584.88;1643320;85;21522;-78
2022/08/21 04:33:32;;;;;;;3.02;2.80;;;;;;;19.05;75.65;100579.03;1644348;85;21357;-77
2022/08/21 04:36:18;;;;;;;3.00;2.80;;;;;;;19.05;75.74;100578.18;1640558;85;21034;-77
2022/08/21 04:39:03;;;;;;;3.17;2.87;;;;;;;19.04;75.74;100576.48;1658212;85;21569;-77
2022/08/21 04:41:49;;;;;;;4.80;3.12;;;;;;;19.03;75.82;100582.19;1640056;85;21157;-77
2022/08/21 04:44:34;;;;;;;3.10;2.80;;;;;;;19.06;75.90;100575.95;1644368;84;21046;-77
2022/08/21 04:47:20;;;;;;;3.07;2.77;;;;;;;19.06;75.82;100575.95;1636706;86;21149;-78
2022/08/21 04:50:06;;;;;;;2.47;2.27;;;;;;;19.05;75.90;100576.87;1634157;85;21213;-78
2022/08/21 04:52:51;;;;;;;4.08;2.30;;;;;;;19.05;75.96;100579.03;1637202;85;21070;-78
2022/08/21 04:55:37;;;;;;;2.60;2.40;;;;;;;19.06;75.98;100593.83;1636623;85;21511;-78
2022/08/21 04:58:25;;;;;;;3.35;2.40;;;;;;;19.05;76.02;100591.28;1636361;85;21007;-78
2022/08/21 05:01:15;;;;;;;5.03;3.27;;;;;;;19.05;76.04;100592.13;1633372;85;21147;-78
2022/08/21 05:04:04;;;;;;;3.87;3.45;;;;;;;19.05;76.04;100594.75;1644521;85;21086;-78
2022/08/21 05:06:50;;;;;;;4.12;3.72;;;;;;;19.08;76.08;100601.16;1632090;85;21534;-78
2022/08/21 05:09:35;;;;;;;4.22;3.83;;;;;;;19.08;76.13;100608.16;1639841;85;21082;-78
2022/08/21 05:12:22;;;;;;;4.37;3.98;;;;;;;19.10;76.17;100618.11;1626047;85;21119;-78
2022/08/21 05:15:08;;;;;;;4.22;3.92;;;;;;;19.12;76.21;100630.67;1635574;85;21405;-78
2022/08/21 05:17:53;;;;;;;6.67;4.78;;;;;;;19.15;76.21;100639.23;1634422;85;20992;-78
2022/08/21 05:20:38;;;;;;;7.33;4.62;;;;;;;19.14;76.27;100638.00;1635254;85;21071;-78
2022/08/21 05:23:23;;;;;;;5.22;4.33;;;;;;;19.10;76.25;100637.30;1633231;85;21375;-78
2022/08/21 05:26:08;;;;;;;8.30;4.42;;;;;;;19.09;76.39;100633.45;1631093;85;21066;-78
2022/08/21 05:28:53;;;;;;;7.08;3.60;;;;;;;19.09;76.42;100630.37;1625612;85;21944;-79
2022/08/21 05:31:38;;;;;;;4.10;3.77;;;;;;;19.07;76.40;100630.06;1635166;85;21543;-79
2022/08/21 05:34:24;;;;;;;4.42;3.70;;;;;;;19.00;76.44;100625.59;1632159;85;21079;-78
2022/08/21 05:37:12;;;;;;;4.87;4.45;;;;;;;19.00;76.52;100632.61;1632024;85;21087;-78
2022/08/21 05:39:57;;;;;;;4.35;3.92;;;;;;;19.02;76.59;100637.30;1636548;85;21083;-78
2022/08/21 05:42:42;;;;;;;4.62;4.22;;;;;;;19.02;76.58;100638.16;1638528;85;21495;-78
2022/08/21 05:45:32;;;;;;;5.40;3.92;;;;;;;19.04;76.63;100636.77;1638762;85;21102;-78
2022/08/21 05:48:20;;;;;;;4.10;3.80;;;;;;;19.05;76.68;100645.02;1632792;85;22367;-78
2022/08/21 05:51:10;;;;;;;4.15;3.85;;;;;;;19.07;76.71;100640.55;1633276;85;21071;-78
2022/08/21 05:53:56;;;;;;;4.42;4.12;;;;;;;19.11;76.74;100642.93;1633002;85;21127;-78
2022/08/21 05:56:44;;;;;;;4.92;4.47;;;;;;;19.10;76.77;100637.77;1637020;85;21063;-78
2022/08/21 05:59:27;;;;;;;5.45;5.05;;;;;;;19.12;76.73;100648.56;1633039;85;21072;-78
2022/08/21 06:02:12;;;;;;;4.58;4.25;;;;;;;19.13;76.73;100652.03;1627457;85;21161;-78
2022/08/21 06:04:57;;;;;;;5.03;4.40;;;;;;;19.15;76.77;100651.48;1649311;85;21630;-78
2022/08/21 06:07:43;;;;;;;4.70;4.30;;;;;;;19.17;76.83;100653.11;1635747;84;21080;-78
2022/08/21 06:10:28;;;;;;;5.95;3.98;;;;;;;19.22;76.86;100644.16;1638465;85;21123;-78
2022/08/21 06:13:14;;;;;;;3.77;3.47;;;;;;;19.22;76.92;100642.84;1641143;85;21068;-78
2022/08/21 06:16:13;;;;;;;3.90;3.60;;;;;;;19.22;76.91;100641.08;1633897;85;21146;-78
2022/08/21 06:18:57;;;;;;;3.92;3.27;;;;;;;19.24;76.92;100637.88;1636196;85;21011;-78
2022/08/21 06:21:42;;;;;;;3.20;3.00;;;;;;;19.29;76.88;100634.56;1629868;85;21119;-78
2022/08/21 06:24:28;;;;;;;3.30;3.10;;;;;;;19.30;76.95;100622.30;1632519;85;21135;-79
2022/08/21 06:27:13;;;;;;;3.10;2.90;;;;;;;19.29;76.88;100624.07;1644836;85;21139;-78
2022/08/21 06:29:58;;;;;;;3.40;3.10;;;;;;;19.29;76.94;100626.69;1641990;85;21131;-78
2022/08/21 06:32:44;;;;;;;3.40;3.10;;;;;;;19.31;77.01;100618.28;1638909;85;21119;-78
2022/08/21 06:35:30;;;;;;;3.22;3.02;;;;;;;19.33;77.04;100615.12;1645384;85;21068;-78
2022/08/21 06:38:15;;;;;;;3.30;3.00;;;;;;;19.34;76.95;100608.95;1636210;85;21123;-78
2022/08/21 06:41:00;;;;;;;4.10;3.33;;;;;;;19.34;77.01;100606.79;1641316;83;21050;-78
2022/08/21 06:43:45;;;;;;;3.70;3.22;;;;;;;19.35;77.00;100608.02;1639026;85;21098;-78
2022/08/21 06:46:31;;;;;;;4.78;2.98;;;;;;;19.35;77.01;100611.11;1630487;85;21535;-78
2022/08/21 06:49:16;;;;;;;3.58;3.27;;;;;;;19.36;77.02;100598.38;1635076;85;21550;-78
2022/08/21 06:52:01;;;;;;;3.62;3.33;;;;;;;19.37;77.09;100598.30;1631293;85;21110;-78
2022/08/21 06:54:46;;;;;;;3.12;2.92;;;;;;;19.40;77.05;100595.98;1633317;85;21572;-78
2022/08/21 06:57:32;;;;;;;3.47;3.25;;;;;;;19.38;76.93;100589.97;1631602;85;21135;-79
2022/08/21 07:00:17;;;;;;;3.33;3.05;;;;;;;19.37;77.01;100593.05;1641047;85;21095;-78
2022/08/21 07:03:02;;;;;;;3.22;2.90;;;;;;;19.38;77.03;100586.88;1639286;85;21515;-78
2022/08/21 07:05:47;;;;;;;3.35;3.15;;;;;;;19.40;77.05;100589.42;1637701;85;21139;-78
2022/08/21 07:08:32;;;;;;;4.70;3.10;;;;;;;19.39;77.00;100596.91;1636907;85;21119;-78
2022/08/21 07:11:22;;;;;;;3.80;3.20;;;;;;;19.38;76.93;100597.37;1636903;85;21103;-79
2022/08/21 07:14:06;;;;;;;3.87;3.58;;;;;;;19.37;76.99;100596.14;1638268;85;21124;-78
2022/08/21 07:16:51;;;;;;;4.58;3.72;;;;;;;19.35;77.06;100590.98;1628453;84;21118;-79
2022/08/21 07:19:37;;;;;;;3.05;2.85;;;;;;;19.35;77.10;100591.44;1640504;85;21152;-78
2022/08/21 07:22:22;;;;;;;3.50;3.20;;;;;;;19.35;77.08;100584.88;1644218;85;21166;-78
2022/08/21 07:25:09;;;;;;;3.52;3.30;;;;;;;19.34;77.14;100589.75;1640025;85;21126;-78
2022/08/21 07:27:55;;;;;;;3.70;3.40;;;;;;;19.35;77.13;100595.38;1627875;85;21383;-78
2022/08/21 07:30:39;;;;;;;3.72;3.40;;;;;;;19.39;77.17;100603.46;1638284;85;21575;-78
2022/08/21 07:33:27;;;;;;;3.47;3.20;;;;;;;19.40;77.19;100610.41;1651979;85;20936;-77
2022/08/21 07:36:13;;;;;;;3.67;3.45;;;;;;;19.43;77.19;100622.05;1623101;85;21004;-77
2022/08/21 07:38:58;;;;;;;3.30;3.00;;;;;;;19.46;77.25;100631.91;1643066;85;21536;-77
2022/08/21 07:41:43;;;;;;;3.87;3.58;;;;;;;19.50;77.27;100625.58;1653240;85;20976;-77
2022/08/21 07:44:28;;;;;;;3.45;3.20;;;;;;;19.52;77.24;100637.33;1650536;85;20976;-77
2022/08/21 07:47:13;;;;;;;3.67;3.37;;;;;;;19.55;77.30;100633.23;1646936;85;21043;-78
2022/08/21 07:49:58;;;;;;;3.80;3.50;;;;;;;19.59;77.26;100641.33;1637289;84;21056;-78
2022/08/21 07:52:43;;;;;;;4.65;3.08;;;;;;;19.63;77.30;100643.33;1643701;85;21150;-78
2022/08/21 07:55:28;;;;;;;3.10;2.90;;;;;;;19.66;77.27;100645.78;1649764;85;21024;-78
2022/08/21 07:58:13;;;;;;;3.40;3.10;;;;;;;19.68;77.26;100646.55;1650346;85;21091;-78
2022/08/21 08:00:59;;;;;;;3.25;3.05;;;;;;;19.68;77.30;100646.09;1651262;85;21664;-79
2022/08/21 08:03:45;;;;;;;;;;;;;;;19.69;77.28;100650.87;1634733;85;21110;-78
2022/08/21 08:06:30;;;;;;;3.17;2.98;;;;;;;19.69;77.48;100645.16;1639058;85;20194;-78
2022/08/21 08:09:16;;;;;;;4.47;3.40;;;;;;;19.70;77.27;100648.62;1642730;85;21550;-78
2022/08/21 08:12:02;;;;;;;3.50;3.20;;;;;;;19.69;77.32;100639.91;1643225;85;21064;-78
2022/08/21 08:14:46;;;;;;;2.92;2.72;;;;;;;19.73;77.34;100644.53;1648888;83;21169;-79
2022/08/21 08:17:38;;;;;;;2.95;2.67;;;;;;;19.72;77.27;100645.00;1638050;85;21741;-78
2022/08/21 08:20:19;;;;;;;3.95;3.05;;;;;;;19.71;77.34;100647.70;1637654;85;21095;-78
2022/08/21 08:23:05;;;;;;;2.50;2.30;;;;;;;19.73;77.33;100655.03;1641055;85;21004;-78
2022/08/21 08:25:50;;;;;;;3.10;2.83;;;;;;;19.76;77.36;100656.99;1638643;85;21063;-78
2022/08/21 08:28:36;;;;;;;5.05;2.67;;;;;;;19.77;77.25;100658.69;1635544;84;22360;-78
2022/08/21 08:31:21;;;;;;;2.62;2.42;;;;;;;19.76;77.31;100654.83;1639683;85;21678;-78
2022/08/21 08:34:06;;;;;;;2.93;2.73;;;;;;;19.79;77.37;100656.83;1638821;85;21141;-77
2022/08/21 08:36:52;;;;;;;3.20;2.90;;;;;;;19.81;77.34;100643.16;1617339;85;21135;-78
2022/08/21 08:39:37;;;;;;;3.08;2.87;;;;;;;19.83;77.33;100641.30;1644777;85;21099;-78
2022/08/21 08:42:30;;;;;;;2.70;2.50;;;;;;;19.85;77.36;100639.91;1641884;85;21102;-78
2022/08/21 08:45:21;;;;;;;2.67;2.47;;;;;;;19.88;77.34;100646.30;1576907;89;21099;-78
2022/08/21 08:48:10;;;;;;;2.95;2.75;;;;;;;19.92;77.41;100640.42;1584384;89;20983;-78
2022/08/21 08:50:58;;;;;;;3.80;2.37;;;;;;;19.97;77.39;100643.19;1578218;89;21333;-78
2022/08/21 08:53:54;;;;;;;2.80;2.60;;;;;;;19.99;77.34;100642.64;1576246;89;21137;-78
2022/08/21 08:56:39;;;;;;;3.15;2.85;;;;;;;20.02;77.41;100640.31;1581315;89;21127;-78
2022/08/21 08:59:29;;;;;;;3.17;2.90;;;;;;;20.04;77.41;100634.51;1589999;88;21158;-78
2022/08/21 09:02:17;;;;;;;2.62;2.42;;;;;;;20.08;77.50;100640.82;1563217;89;21143;-78
2022/08/21 09:05:02;;;;;;;2.83;2.62;;;;;;;20.13;77.49;100650.61;1583407;89;20974;-78
2022/08/21 09:08:18;;;;;;;3.33;2.60;;;;;;;20.18;77.41;100649.50;1582019;89;20953;-78
2022/08/21 09:11:08;;;;;;;4.20;2.37;;;;;;;20.20;77.42;100652.42;1585949;88;21471;-78
2022/08/21 09:14:18;;;;;;;2.70;2.50;;;;;;;20.25;77.46;100654.80;1590969;88;21526;-78
2022/08/21 09:17:33;;;;;;;4.00;3.17;;;;;;;20.29;77.45;100653.67;1587924;88;21561;-79
2022/08/21 09:20:38;;;;;;;3.02;2.35;;;;;;;20.31;77.49;100646.09;1578239;88;21163;-78
2022/08/21 09:23:59;;;;;;;2.87;2.67;;;;;;;20.34;77.49;100641.97;1598537;87;21108;-79
2022/08/21 09:27:10;;;;;;;2.87;2.67;;;;;;;20.38;77.48;100641.38;1667495;84;21085;-77
2022/08/21 09:29:57;;;;;;;3.20;2.92;;;;;;;20.36;77.45;100642.73;1680102;84;21066;-78
2022/08/21 09:32:42;;;;;;;3.70;3.40;;;;;;;20.37;77.50;100647.06;1667661;84;21099;-77
2022/08/21 09:35:27;;;;;;;3.45;3.15;;;;;;;20.37;77.43;100649.69;1642334;84;21158;-78
2022/08/21 09:38:18;;;;;;;3.72;3.42;;;;;;;20.35;77.49;100650.23;1655382;84;21550;-80
2022/08/21 09:41:08;;;;;;;3.60;3.30;;;;;;;20.36;77.47;100646.67;1638317;84;21086;-80
2022/08/21 09:43:54;;;;;;;5.60;3.30;;;;;;;20.36;77.53;100655.87;1661412;84;21082;-80
2022/08/21 09:46:44;;;;;;;3.72;3.30;;;;;;;20.38;77.52;100661.06;1654740;84;21022;-80
2022/08/21 09:49:37;;;;;;;3.67;3.12;;;;;;;20.38;77.50;100659.29;1654494;84;21095;-80
2022/08/21 09:52:25;;;;;;;3.35;2.85;;;;;;;20.40;77.49;100652.64;1658587;84;21108;-81
2022/08/21 09:57:38;;;;;;;3.45;3.15;;;;;;;20.44;77.53;100660.73;1649565;84;21998;-79
2022/08/21 09:58:07;;;;;;;5.10;3.45;;;;;;;20.46;77.52;100665.43;1629468;84;21095;-80
2022/08/21 10:01:00;;;;;;;;;;;;;;;20.47;77.54;100662.72;1632541;86;21071;-82
2022/08/21 10:03:45;;;;;;;4.45;3.15;;;;;;;20.50;77.67;100669.58;1621973;85;20170;-79
2022/08/21 10:06:30;;;;;;;4.15;3.37;;;;;;;20.52;77.54;100669.49;1639507;86;21031;-79
2022/08/21 10:09:19;;;;;;;3.98;3.37;;;;;;;20.52;77.51;100665.08;1628708;85;21064;-80
2022/08/21 10:12:18;;;;;;;3.65;3.37;;;;;;;20.52;77.53;100666.40;1611519;86;21135;-80
2022/08/21 10:15:48;;;;;;;3.77;3.47;;;;;;;20.52;77.49;100665.08;1614894;87;21218;-79
2022/08/21 10:19:01;;;;;;;4.58;3.20;;;;;;;20.52;77.49;100665.08;1613339;87;21118;-80
2022/08/21 10:22:10;;;;;;;3.85;3.33;;;;;;;20.52;77.57;100666.86;1609407;87;21033;-79
2022/08/21 10:25:21;;;;;;;3.52;3.22;;;;;;;20.53;77.58;100661.99;1616166;87;21063;-80
2022/08/21 10:28:20;;;;;;;3.27;3.08;;;;;;;20.54;77.57;100672.41;1603166;86;21162;-79
2022/08/21 10:31:25;;;;;;;3.50;3.20;;;;;;;20.56;77.64;100674.95;1604834;87;21138;-79
2022/08/21 10:34:27;;;;;;;3.98;3.25;;;;;;;20.57;77.66;100672.24;1613855;87;21084;-80
2022/08/21 10:38:03;;;;;;;5.30;2.87;;;;;;;20.61;77.66;100671.60;1604971;86;21615;-78
2022/08/21 10:41:10;;;;;;;2.98;2.77;;;;;;;20.65;77.66;100669.19;1613768;87;21159;-79
2022/08/21 10:44:24;;;;;;;2.87;2.42;;;;;;;20.69;77.68;100666.77;1607942;87;21080;-78
2022/08/21 10:47:15;;;;;;;2.55;2.35;;;;;;;20.70;77.61;100658.79;1613804;86;20997;-80
2022/08/21 10:50:11;;;;;;;2.58;2.37;;;;;;;20.73;77.63;100668.28;1620014;86;22410;-79
2022/08/21 10:53:28;;;;;;;3.83;2.30;;;;;;;20.70;77.54;100681.13;1616429;87;21128;-79
2022/08/21 10:56:24;;;;;;;3.52;2.70;;;;;;;20.68;77.62;100688.72;1610078;87;21088;-79
2022/08/21 10:59:32;;;;;;;3.50;2.35;;;;;;;20.65;77.61;100694.98;1614334;86;21084;-80
2022/08/21 11:02:29;;;;;;;2.30;2.10;;;;;;;20.64;77.59;100692.45;1620064;87;21531;-79
2022/08/21 11:05:23;;;;;;;3.72;2.25;;;;;;;20.62;77.62;100685.13;1612857;86;20945;-78
2022/08/21 11:08:16;;;;;;;2.40;1.98;;;;;;;20.61;77.62;100684.27;1611226;87;21008;-78
2022/08/21 11:11:26;;;;;;;2.67;2.20;;;;;;;20.61;77.59;100684.27;1606368;87;20931;-78
2022/08/21 11:14:22;;;;;;;3.08;2.30;;;;;;;20.59;77.62;100687.45;1606734;87;21155;-78
2022/08/21 11:17:15;;;;;;;2.98;2.37;;;;;;;20.57;77.57;100686.69;1612632;86;27888;-78
2022/08/21 11:20:14;;;;;;;3.25;2.27;;;;;;;20.56;77.59;100681.05;1610445;87;21488;-78
2022/08/21 11:23:23;;;;;;;2.67;2.00;;;;;;;20.56;77.61;100676.27;1603125;86;21135;-78
2022/08/21 11:26:25;;;;;;;2.80;1.75;;;;;;;20.54;77.54;100669.79;1605095;86;21128;-79
2022/08/21 11:29:27;;;;;;;4.08;2.12;;;;;;;20.49;77.46;100663.94;1613887;86;21123;-83
2022/08/21 11:32:51;;;;;;;2.42;1.70;;;;;;;20.43;77.52;100658.56;1618801;85;21144;-83
2022/08/21 11:36:04;;;;;;;2.00;1.77;;;;;;;20.42;77.49;100657.34;1610090;87;21064;-83
2022/08/21 11:38:54;;;;;;;1.80;1.70;;;;;;;20.36;77.53;100670.31;1612743;86;21072;-82
2022/08/21 11:41:56;;;;;;;2.33;1.90;;;;;;;20.36;77.53;100666.38;1611601;87;21084;-84
2022/08/21 11:45:01;;;;;;;1.77;1.67;;;;;;;20.36;77.52;100673.41;1591480;88;21912;-83
2022/08/21 11:48:06;;;;;;;3.33;1.83;;;;;;;20.33;77.51;100671.80;1589462;88;21097;-83
2022/08/21 11:50:54;;;;;;;3.73;2.00;;;;;;;20.32;77.48;100667.94;1591025;87;21082;-83
2022/08/21 11:53:50;;;;;;;3.85;1.90;;;;;;;20.28;77.46;100669.05;1593330;88;21318;-83
2022/08/21 11:56:40;;;;;;;1.77;1.65;;;;;;;20.25;77.44;100668.78;1596517;87;21099;-84
2022/08/21 11:59:33;;;;;;;2.55;2.00;;;;;;;20.22;77.40;100666.32;1615302;87;21039;-84
2022/08/21 12:02:23;;;;;;;2.27;1.80;;;;;;;20.19;77.44;100664.33;1603488;87;21127;-83
2022/08/21 12:05:13;;;;;;;3.72;1.98;;;;;;;20.18;77.52;100663.95;1648602;85;21724;-83
2022/08/21 12:08:12;;;;;;;2.10;2.00;;;;;;;20.15;77.49;100658.40;1645350;85;21849;-83
2022/08/21 12:11:17;;;;;;;4.20;1.90;;;;;;;20.12;77.46;100662.50;1644750;85;21113;-83
2022/08/21 12:14:10;;;;;;;1.92;1.75;;;;;;;20.09;77.46;100656.95;1636258;85;21708;-83
2022/08/21 12:17:01;;;;;;;2.87;1.72;;;;;;;20.06;77.50;100654.96;1648094;85;21014;-83
2022/08/21 12:19:59;;;;;;;2.08;1.80;;;;;;;20.01;77.50;100649.11;1644179;85;21105;-83
2022/08/21 12:22:55;;;;;;;2.00;1.82;;;;;;;20.00;77.56;100641.70;1643473;85;21559;-83
2022/08/21 12:26:05;;;;;;;4.60;1.70;;;;;;;20.02;77.62;100633.75;1635399;85;21519;-83
2022/08/21 12:28:51;;;;;;;1.85;1.72;;;;;;;20.07;77.69;100633.03;1587134;88;21073;-83
2022/08/21 12:31:36;;;;;;;4.00;1.82;;;;;;;20.09;77.66;100635.11;1612353;87;21013;-83
2022/08/21 12:34:26;;;;;;;2.62;2.10;;;;;;;20.10;77.64;100639.42;1584404;88;21433;-83
2022/08/21 12:37:40;;;;;;;2.55;1.72;;;;;;;20.16;77.67;100649.12;1581641;88;21065;-82
2022/08/21 12:40:33;;;;;;;2.00;1.90;;;;;;;20.22;77.75;100653.66;1606696;87;22160;-80
2022/08/21 12:43:31;;;;;;;2.10;1.80;;;;;;;20.26;77.69;100651.24;1656217;85;21038;-81
2022/08/21 12:46:24;;;;;;;3.60;2.35;;;;;;;20.25;77.61;100660.90;1645827;85;20998;-80
2022/08/21 12:49:20;;;;;;;2.27;1.90;;;;;;;20.21;77.68;100663.78;1656004;83;21010;-81
2022/08/21 12:52:25;;;;;;;2.50;1.60;;;;;;;20.14;77.57;100670.68;1643791;85;21960;-81
2022/08/21 12:55:16;;;;;;;1.87;1.47;;;;;;;20.06;77.53;100678.13;1634680;85;21138;-80
2022/08/21 12:58:02;;;;;;;3.65;1.50;;;;;;;19.97;77.57;100684.33;1636484;85;21123;-79
2022/08/21 13:01:13;;;;;;;2.02;1.50;;;;;;;19.91;77.55;100688.13;1630299;84;21062;-81
2022/08/21 13:04:19;;;;;;;2.75;1.57;;;;;;;19.84;77.54;100684.98;1653577;85;21059;-80
2022/08/21 13:07:10;;;;;;;1.55;1.35;;;;;;;19.78;77.52;100689.71;1659138;84;21163;-78
2022/08/21 13:10:22;;;;;;;1.95;1.47;;;;;;;19.74;77.52;100687.74;1661175;84;21073;-79
2022/08/21 13:13:13;;;;;;;2.33;1.60;;;;;;;19.71;77.53;100692.30;1648328;85;21558;-79